Time;durP1;ratioP1;P1;durP2;ratioP2;P2;SDS_P1;SDS_P2;PMS_P1;PMS_P2;Temp;Humidity;BMP_temperature;BMP_pressure;BME280_temperature;BME280_humidity;BME280_pressure;Samples;Min_cycle;Max_cycle;Signal;HPM_P1;HPM_P2
2022/08/18 00:02:18;;;;;;;6.80;6.30;;;25.00;71.60;;;;;;6239755;28;20216;-65
2022/08/18 00:05:30;;;;;;;8.70;7.80;;;25.00;71.70;;;;;;6253005;28;20236;-68
2022/08/18 00:08:33;;;;;;;7.63;7.03;;;25.00;71.80;;;;;;6244479;28;20232;-65
2022/08/18 00:11:44;;;;;;;8.50;6.77;;;25.00;71.60;;;;;;6229502;28;20229;-65
2022/08/18 00:14:47;;;;;;;8.20;7.20;;;25.00;71.90;;;;;;6229358;28;20248;-65
2022/08/18 00:17:51;;;;;;;9.73;7.80;;;25.00;72.50;;;;;;6229664;28;20224;-65
2022/08/18 00:20:54;;;;;;;8.03;7.23;;;25.00;72.40;;;;;;6229178;28;20240;-64
2022/08/18 00:23:57;;;;;;;8.23;7.53;;;25.00;72.40;;;;;;6229203;28;20235;-64
2022/08/18 00:27:02;;;;;;;8.30;7.60;;;25.00;72.50;;;;;;6228979;28;20244;-64
2022/08/18 00:30:08;;;;;;;8.50;7.70;;;25.00;72.70;;;;;;6229098;28;20258;-63
2022/08/18 00:33:11;;;;;;;7.93;6.37;;;25.00;72.50;;;;;;6228815;28;20236;-63
2022/08/18 00:36:14;;;;;;;7.03;6.43;;;25.00;72.90;;;;;;6227730;28;20244;-64
2022/08/18 00:39:18;;;;;;;6.80;6.30;;;25.00;73.10;;;;;;6228799;28;20237;-63
2022/08/18 00:42:25;;;;;;;7.40;6.90;;;25.00;73.00;;;;;;6228775;28;20255;-63
2022/08/18 00:45:36;;;;;;;8.20;7.60;;;24.80;73.50;;;;;;6228473;28;20233;-63
2022/08/18 00:48:39;;;;;;;7.60;6.90;;;24.80;74.10;;;;;;6228210;28;20236;-64
2022/08/18 00:51:51;;;;;;;7.00;6.47;;;24.70;74.30;;;;;;6228721;28;20287;-64
2022/08/18 00:54:55;;;;;;;7.13;6.47;;;24.60;74.80;;;;;;6228337;28;20668;-64
2022/08/18 00:58:10;;;;;;;6.33;5.93;;;24.60;75.10;;;;;;6228291;28;20795;-64
2022/08/18 01:01:13;;;;;;;7.00;6.50;;;24.50;74.90;;;;;;6236105;28;20229;-64
2022/08/18 01:04:22;;;;;;;7.10;6.30;;;24.50;75.30;;;;;;6228327;28;20664;-64
2022/08/18 01:07:29;;;;;;;6.93;6.33;;;24.50;75.50;;;;;;6228346;28;20225;-65
2022/08/18 01:10:34;;;;;;;9.60;7.83;;;24.50;75.20;;;;;;6228357;28;20228;-64
2022/08/18 01:13:41;;;;;;;7.30;6.60;;;24.40;75.30;;;;;;6219073;28;20237;-64
2022/08/18 01:23:30;;;;;;;6.73;6.17;;;24.40;76.20;;;;;;6227353;28;20221;-64
2022/08/18 01:26:37;;;;;;;7.27;6.60;;;24.30;76.80;;;;;;6227877;28;20574;-64
2022/08/18 01:29:48;;;;;;;7.63;6.93;;;24.10;77.00;;;;;;6227184;28;20240;-65
2022/08/18 01:32:52;;;;;;;7.57;6.80;;;24.10;77.40;;;;;;6227407;28;20246;-65
2022/08/18 01:35:56;;;;;;;6.60;6.10;;;24.10;78.00;;;;;;6227365;28;20248;-65
2022/08/18 01:39:00;;;;;;;6.50;6.00;;;24.00;78.90;;;;;;6227245;28;20229;-65
2022/08/18 01:42:04;;;;;;;7.20;6.67;;;24.10;78.20;;;;;;6227496;28;20236;-65
2022/08/18 01:45:09;;;;;;;6.83;6.23;;;24.00;78.00;;;;;;6227072;28;20229;-64
2022/08/18 01:48:12;;;;;;;6.57;6.10;;;23.90;78.50;;;;;;6227108;28;20229;-65
2022/08/18 01:51:19;;;;;;;7.10;6.40;;;23.80;78.80;;;;;;6227064;28;20271;-64
2022/08/18 01:54:43;;;;;;;6.70;6.20;;;23.70;79.40;;;;;;6227874;28;20241;-64
2022/08/18 01:57:46;;;;;;;7.50;6.90;;;23.70;79.50;;;;;;6227828;28;20209;-64
2022/08/18 02:00:50;;;;;;;7.80;7.10;;;23.70;79.90;;;;;;6227498;28;20296;-64
2022/08/18 02:03:58;;;;;;;7.67;6.97;;;23.70;80.10;;;;;;6226979;28;20216;-64
2022/08/18 02:07:22;;;;;;;6.87;6.37;;;23.70;80.20;;;;;;6226932;28;20225;-64
2022/08/18 02:10:37;;;;;;;7.80;7.10;;;23.60;80.20;;;;;;6226919;28;20236;-64
2022/08/18 02:13:41;;;;;;;7.77;7.07;;;23.60;80.60;;;;;;6226516;28;20240;-64
2022/08/18 02:16:44;;;;;;;7.80;6.97;;;23.50;81.10;;;;;;6226716;28;20240;-64
2022/08/18 02:19:47;;;;;;;6.67;6.20;;;23.40;81.70;;;;;;6250266;28;20247;-64
2022/08/18 02:22:51;;;;;;;6.93;6.30;;;23.30;82.30;;;;;;6250676;28;20560;-64
2022/08/18 02:25:56;;;;;;;8.47;7.77;;;23.30;82.70;;;;;;6231348;28;20229;-64
2022/08/18 02:28:59;;;;;;;7.47;6.87;;;23.20;83.20;;;;;;6226164;28;20244;-64
2022/08/18 02:32:02;;;;;;;7.33;6.63;;;22.90;84.30;;;;;;6226479;28;20248;-64
2022/08/18 02:35:07;;;;;;;8.20;7.50;;;22.90;85.00;;;;;;6226054;28;20245;-64
2022/08/18 02:38:13;;;;;;;8.80;8.00;;;22.80;85.40;;;;;;6226333;28;20233;-65
2022/08/18 02:41:21;;;;;;;9.03;8.13;;;22.80;86.10;;;;;;6226187;28;20236;-65
2022/08/18 02:44:24;;;;;;;8.30;7.50;;;22.80;86.90;;;;;;6225961;28;20576;-64
2022/08/18 02:47:27;;;;;;;8.50;7.70;;;22.80;87.40;;;;;;6225675;28;20224;-64
2022/08/18 02:50:43;;;;;;;8.73;7.40;;;22.80;87.70;;;;;;6226062;28;20252;-64
2022/08/18 02:53:47;;;;;;;7.83;7.30;;;22.80;88.20;;;;;;6225647;28;20248;-64
2022/08/18 02:56:52;;;;;;;9.13;8.17;;;22.80;88.60;;;;;;6225578;28;20595;-64
2022/08/18 02:59:56;;;;;;;9.37;8.57;;;22.70;89.90;;;;;;6225026;28;20698;-64
2022/08/18 03:03:01;;;;;;;7.90;7.30;;;22.70;90.50;;;;;;6225747;28;20557;-64
2022/08/18 03:06:05;;;;;;;8.47;7.87;;;22.60;90.80;;;;;;6225756;28;20240;-65
2022/08/18 03:09:10;;;;;;;8.90;8.20;;;22.50;91.40;;;;;;6225770;28;20240;-65
2022/08/18 03:12:15;;;;;;;8.87;8.13;;;22.60;91.60;;;;;;6226050;28;20235;-64
2022/08/18 03:15:18;;;;;;;8.30;7.60;;;22.60;91.60;;;;;;6225222;28;20244;-64
2022/08/18 03:18:22;;;;;;;8.67;7.83;;;22.70;91.80;;;;;;6225478;28;20225;-64
2022/08/18 03:21:27;;;;;;;9.23;8.30;;;22.70;91.80;;;;;;6225501;28;20229;-64
2022/08/18 03:24:32;;;;;;;9.90;8.90;;;22.70;91.80;;;;;;6220625;28;20554;-64
2022/08/18 03:27:36;;;;;;;8.90;8.20;;;22.70;91.90;;;;;;6225433;28;20224;-64
2022/08/18 03:30:39;;;;;;;9.70;8.70;;;22.70;92.00;;;;;;6225036;28;20236;-64
2022/08/18 03:33:44;;;;;;;8.43;7.83;;;22.60;92.20;;;;;;6225525;28;20629;-64
2022/08/18 03:36:47;;;;;;;8.10;7.40;;;22.60;92.30;;;;;;6224947;28;20684;-63
2022/08/18 03:39:51;;;;;;;9.13;8.33;;;22.60;92.50;;;;;;6225224;28;20220;-63
2022/08/18 03:42:56;;;;;;;7.70;7.20;;;22.70;92.40;;;;;;6225330;28;20205;-64
2022/08/18 03:46:05;;;;;;;8.33;7.63;;;22.70;92.60;;;;;;6224885;28;20689;-64
2022/08/18 03:49:09;;;;;;;8.57;7.87;;;22.70;92.70;;;;;;6225122;28;20229;-64
2022/08/18 03:52:12;;;;;;;8.50;7.80;;;22.70;92.50;;;;;;6225436;28;20232;-63
2022/08/18 03:55:15;;;;;;;8.03;7.43;;;22.70;92.70;;;;;;6224924;28;20225;-64
2022/08/18 03:58:19;;;;;;;8.60;7.80;;;22.70;92.70;;;;;;6225406;28;20229;-64
2022/08/18 04:01:25;;;;;;;8.23;7.53;;;22.70;92.60;;;;;;6225269;28;20225;-63
2022/08/18 04:04:29;;;;;;;9.20;8.30;;;22.70;92.90;;;;;;6225154;28;20225;-63
2022/08/18 04:07:34;;;;;;;8.73;8.03;;;22.70;92.80;;;;;;6224713;28;20688;-63
2022/08/18 04:10:37;;;;;;;9.00;8.20;;;22.60;92.80;;;;;;6224922;28;20229;-64
2022/08/18 04:13:42;;;;;;;9.07;8.27;;;22.60;93.00;;;;;;6228813;28;20236;-64
2022/08/18 04:16:47;;;;;;;8.90;8.10;;;22.60;93.00;;;;;;6229611;28;20244;-64
2022/08/18 04:19:51;;;;;;;9.20;8.50;;;22.50;93.30;;;;;;6228974;28;20407;-64
2022/08/18 04:22:56;;;;;;;9.50;8.70;;;22.60;93.20;;;;;;6229186;28;20229;-64
2022/08/18 04:26:00;;;;;;;9.57;8.77;;;22.60;93.20;;;;;;6219990;28;20233;-64
2022/08/18 04:29:05;;;;;;;8.90;8.10;;;22.60;93.30;;;;;;6229271;28;20233;-64
2022/08/18 04:32:08;;;;;;;9.13;8.23;;;22.60;93.30;;;;;;6229032;28;20668;-64
2022/08/18 04:35:11;;;;;;;10.10;9.20;;;22.60;93.40;;;;;;6228477;28;20259;-63
2022/08/18 04:38:16;;;;;;;9.87;9.07;;;22.70;93.30;;;;;;6228662;28;20247;-64
2022/08/18 04:41:26;;;;;;;10.17;9.27;;;22.80;93.30;;;;;;6228516;28;20236;-64
2022/08/18 04:44:31;;;;;;;10.30;8.63;;;22.80;93.10;;;;;;6228141;28;20681;-64
2022/08/18 04:47:34;;;;;;;9.53;8.40;;;22.80;93.00;;;;;;6228790;28;20225;-64
2022/08/18 04:50:39;;;;;;;10.13;9.17;;;22.80;93.00;;;;;;6227933;28;20574;-64
2022/08/18 04:53:46;;;;;;;9.77;8.90;;;22.80;93.00;;;;;;6228122;28;20278;-64
2022/08/18 04:56:49;;;;;;;8.87;8.17;;;22.70;93.20;;;;;;6227833;28;20237;-64
2022/08/18 04:59:56;;;;;;;10.40;9.43;;;22.70;93.30;;;;;;6227880;28;20237;-64
2022/08/18 05:02:59;;;;;;;10.10;9.10;;;22.70;93.20;;;;;;6227942;28;20240;-64
2022/08/18 05:06:06;;;;;;;11.17;9.17;;;22.80;93.30;;;;;;6227742;28;20562;-64
2022/08/18 05:09:10;;;;;;;10.33;9.50;;;22.90;93.20;;;;;;6228324;28;20347;-64
2022/08/18 05:12:15;;;;;;;9.80;9.00;;;23.10;93.00;;;;;;6227908;28;20233;-64
2022/08/18 05:15:19;;;;;;;9.53;8.73;;;23.30;92.70;;;;;;6227822;28;20244;-64
2022/08/18 05:18:24;;;;;;;9.67;8.70;;;23.50;92.30;;;;;;6227547;28;20597;-64
2022/08/18 05:21:28;;;;;;;10.17;9.30;;;23.70;92.00;;;;;;6227689;28;20669;-64
2022/08/18 05:24:34;;;;;;;9.90;8.90;;;23.80;91.80;;;;;;6227033;28;20229;-64
2022/08/18 05:27:42;;;;;;;10.23;9.43;;;23.90;91.40;;;;;;6224915;28;20568;-64
2022/08/18 05:30:47;;;;;;;10.83;8.73;;;24.00;91.20;;;;;;6227375;28;20213;-64
2022/08/18 05:33:51;;;;;;;10.20;9.30;;;24.30;91.20;;;;;;6227522;28;20216;-64
2022/08/18 05:37:08;;;;;;;12.43;10.23;;;24.60;90.60;;;;;;6226801;28;20236;-65
2022/08/18 05:40:14;;;;;;;10.07;9.17;;;25.10;90.00;;;;;;6227285;28;20232;-65
2022/08/18 05:43:17;;;;;;;12.30;9.93;;;25.60;88.20;;;;;;6227530;28;20240;-65
2022/08/18 05:46:26;;;;;;;10.50;9.40;;;26.10;86.10;;;;;;6227291;28;20224;-65
2022/08/18 05:49:30;;;;;;;9.97;9.27;;;26.50;84.50;;;;;;6227775;28;20236;-65
2022/08/18 05:52:37;;;;;;;10.67;9.87;;;26.90;82.30;;;;;;6227025;28;20243;-64
2022/08/18 05:59:08;;;;;;;10.53;9.60;;;27.90;78.50;;;;;;6227103;28;20228;-64
2022/08/18 06:02:18;;;;;;;10.40;9.50;;;28.50;75.80;;;;;;6227014;28;20255;-64
2022/08/18 06:05:25;;;;;;;10.47;9.50;;;29.00;73.70;;;;;;6226479;28;20233;-63
2022/08/18 06:08:36;;;;;;;13.43;9.43;;;29.40;71.50;;;;;;6226697;28;20547;-64
2022/08/18 06:11:39;;;;;;;11.53;10.50;;;29.90;69.10;;;;;;6226758;28;20237;-64
2022/08/18 06:14:43;;;;;;;9.80;8.90;;;30.50;66.40;;;;;;6226519;28;20232;-64
2022/08/18 06:18:14;;;;;;;12.52;10.10;;;31.10;64.40;;;;;;6225787;28;20232;-64
2022/08/18 06:21:31;;;;;;;11.80;10.60;;;31.70;61.20;;;;;;6226134;28;20239;-64
2022/08/18 06:24:49;;;;;;;11.38;10.35;;;31.70;59.90;;;;;;6225837;28;20256;-64
2022/08/18 06:28:01;;;;;;;11.20;10.07;;;32.10;59.00;;;;;;6226679;28;20185;-64
2022/08/18 06:31:12;;;;;;;12.82;10.15;;;32.40;57.00;;;;;;6225795;28;20260;-63
2022/08/18 06:34:26;;;;;;;9.90;8.95;;;32.60;56.50;;;;;;6220971;28;20221;-64
2022/08/18 06:37:33;;;;;;;11.60;10.60;;;33.00;55.20;;;;;;6226762;28;20247;-63
2022/08/18 06:40:36;;;;;;;10.48;9.52;;;33.40;54.00;;;;;;6226706;28;20229;-63
2022/08/18 06:43:50;;;;;;;10.15;8.63;;;33.90;53.20;;;;;;6226315;28;20235;-64
2022/08/18 06:47:03;;;;;;;10.45;9.65;;;34.40;52.10;;;;;;6226224;28;20229;-64
2022/08/18 06:50:18;;;;;;;9.93;8.98;;;34.80;51.30;;;;;;6225958;28;20252;-64
2022/08/18 06:53:21;;;;;;;10.93;9.43;;;35.10;49.90;;;;;;6225801;28;20225;-64
2022/08/18 06:56:45;;;;;;;10.07;9.18;;;35.90;49.00;;;;;;6225555;28;20684;-64
2022/08/18 06:59:56;;;;;;;10.32;9.52;;;36.70;47.10;;;;;;6225979;28;20239;-64
2022/08/18 07:03:06;;;;;;;20.38;9.80;;;37.50;45.70;;;;;;6225481;28;20228;-64
2022/08/18 07:06:26;;;;;;;16.52;10.75;;;38.20;44.20;;;;;;6246251;28;20243;-65
2022/08/18 07:09:34;;;;;;;30.55;14.38;;;38.80;42.70;;;;;;6249945;28;20224;-65
2022/08/18 07:12:37;;;;;;;14.25;8.75;;;39.40;41.50;;;;;;6240765;28;20652;-65
2022/08/18 07:15:42;;;;;;;11.15;9.48;;;39.70;40.30;;;;;;6237308;28;20247;-64
2022/08/18 07:18:46;;;;;;;9.73;8.95;;;39.90;39.80;;;;;;6228915;28;20196;-65
2022/08/18 07:22:02;;;;;;;9.70;8.90;;;40.20;39.30;;;;;;6225533;28;20205;-65
2022/08/18 07:25:06;;;;;;;12.68;9.32;;;40.80;38.20;;;;;;6225081;28;20229;-65
2022/08/18 07:28:28;;;;;;;9.45;8.50;;;41.30;37.50;;;;;;6225583;28;20224;-64
2022/08/18 07:31:39;;;;;;;9.55;8.63;;;42.10;36.10;;;;;;6225251;28;20240;-64
2022/08/18 07:34:48;;;;;;;10.98;8.88;;;42.70;34.70;;;;;;6227227;28;20699;-65
2022/08/18 07:38:01;;;;;;;9.82;7.90;;;43.70;33.60;;;;;;6237293;28;20261;-65
2022/08/18 07:41:28;;;;;;;8.60;7.82;;;44.50;32.30;;;;;;6249488;28;20227;-65
2022/08/18 07:44:43;;;;;;;8.55;7.75;;;45.20;31.10;;;;;;6249517;28;20224;-64
2022/08/18 07:47:52;;;;;;;12.98;7.88;;;46.10;29.40;;;;;;6254255;28;20231;-65
2022/08/18 07:51:07;;;;;;;6.88;5.88;;;46.30;29.00;;;;;;6254123;28;20691;-65
2022/08/18 07:54:20;;;;;;;6.55;5.95;;;46.60;28.50;;;;;;6254485;28;20572;-65
2022/08/18 07:57:52;;;;;;;5.78;5.15;;;47.20;28.10;;;;;;6254040;28;20238;-65
2022/08/18 08:01:03;;;;;;;5.95;5.40;;;47.30;27.10;;;;;;6254760;28;20350;-63
2022/08/18 08:04:13;;;;;;;6.43;5.53;;;47.50;26.90;;;;;;6240628;28;20233;-64
2022/08/18 08:07:32;;;;;;;5.13;4.68;;;47.70;26.70;;;;;;6227919;28;20240;-65
2022/08/18 08:10:44;;;;;;;7.07;5.43;;;48.20;26.10;;;;;;6228233;28;20230;-65
2022/08/18 08:14:05;;;;;;;5.55;5.03;;;48.80;25.50;;;;;;6227694;28;20236;-64
2022/08/18 08:17:23;;;;;;;6.82;5.00;;;49.80;24.50;;;;;;6227703;28;20239;-64
2022/08/18 08:20:32;;;;;;;5.82;4.60;;;51.00;24.00;;;;;;6228205;28;20232;-65
2022/08/18 08:23:44;;;;;;;5.22;4.55;;;51.50;23.20;;;;;;6228018;28;20242;-64
2022/08/18 08:26:57;;;;;;;11.82;4.97;;;52.00;22.80;;;;;;6228215;28;20224;-64
2022/08/18 08:30:07;;;;;;;6.07;4.97;;;52.50;21.90;;;;;;6227883;28;20720;-64
2022/08/18 08:33:19;;;;;;;6.80;5.35;;;52.30;21.80;;;;;;6227847;28;20232;-65
2022/08/18 08:36:28;;;;;;;6.47;4.15;;;52.30;21.90;;;;;;6227336;28;20641;-65
2022/08/18 08:39:38;;;;;;;9.48;7.85;;;52.50;21.90;;;;;;6227751;28;20221;-65
2022/08/18 08:42:47;;;;;;;11.50;9.00;;;51.90;22.30;;;;;;6227361;28;20224;-65
2022/08/18 08:45:57;;;;;;;10.38;5.93;;;52.20;22.50;;;;;;6227937;28;20224;-65
2022/08/18 08:49:07;;;;;;;9.63;8.45;;;52.20;22.50;;;;;;6227270;28;20243;-65
2022/08/18 08:52:16;;;;;;;13.60;12.30;;;52.60;22.20;;;;;;6227794;28;20224;-64
2022/08/18 08:55:24;;;;;;;7.78;6.93;;;53.20;22.30;;;;;;6226975;28;20240;-64
2022/08/18 08:58:35;;;;;;;7.20;6.50;;;53.60;21.50;;;;;;6226516;28;20232;-65
2022/08/18 09:01:46;;;;;;;8.52;5.95;;;54.00;21.00;;;;;;6226958;28;20228;-64
2022/08/18 09:04:55;;;;;;;10.60;6.47;;;53.40;20.70;;;;;;6226890;28;20236;-64
2022/08/18 09:08:33;;;;;;;11.63;5.43;;;52.50;21.40;;;;;;6226579;28;20227;-66
2022/08/18 09:12:12;;;;;;;9.65;8.75;;;51.70;21.80;;;;;;6232587;28;20314;-65
2022/08/18 09:15:54;;;;;;;7.13;6.47;;;50.10;22.80;;;;;;6229381;28;20700;-65
2022/08/18 09:19:16;;;;;;;8.05;7.05;;;48.60;24.00;;;;;;6226546;28;20227;-65
2022/08/18 09:22:31;;;;;;;10.38;8.07;;;46.80;25.30;;;;;;6233132;28;20677;-66
2022/08/18 09:25:46;;;;;;;6.22;4.82;;;45.50;26.60;;;;;;6235231;28;20229;-64
2022/08/18 09:28:57;;;;;;;7.28;6.38;;;44.30;26.70;;;;;;6236540;28;20228;-65
2022/08/18 09:32:43;;;;;;;10.60;5.78;;;43.10;27.90;;;;;;6245663;28;20680;-65
2022/08/18 09:36:06;;;;;;;5.95;5.35;;;42.10;28.90;;;;;;6232562;28;20232;-65
2022/08/18 09:42:49;;;;;;;8.98;6.22;;;39.80;30.30;;;;;;6231997;28;20216;-65
2022/08/18 09:45:58;;;;;;;9.75;5.93;;;38.80;32.40;;;;;;6236103;28;20240;-65
2022/08/18 09:49:39;;;;;;;6.82;4.47;;;38.20;32.50;;;;;;6237877;28;20536;-66
2022/08/18 09:52:49;;;;;;;11.05;5.07;;;37.70;32.80;;;;;;6248033;28;20243;-65
2022/08/18 09:55:57;;;;;;;6.63;4.72;;;37.50;33.60;;;;;;6228997;28;20613;-65
2022/08/18 09:59:07;;;;;;;9.45;4.90;;;37.80;33.40;;;;;;6225514;28;20236;-65
2022/08/18 10:02:51;;;;;;;9.20;5.40;;;37.80;33.40;;;;;;6225460;28;20232;-65
2022/08/18 10:06:22;;;;;;;15.50;5.57;;;37.80;33.60;;;;;;6225830;28;20310;-65
2022/08/18 10:09:36;;;;;;;11.02;5.28;;;37.80;33.30;;;;;;6224083;28;20579;-65
2022/08/18 10:12:58;;;;;;;9.93;6.28;;;37.30;33.70;;;;;;6226600;28;20247;-65
2022/08/18 10:16:12;;;;;;;8.18;5.55;;;37.10;34.60;;;;;;6226852;28;20566;-65
2022/08/18 10:19:22;;;;;;;10.70;5.70;;;37.20;34.10;;;;;;6226577;28;20224;-65
2022/08/18 10:22:46;;;;;;;9.98;5.55;;;37.30;34.70;;;;;;6226800;28;20295;-65
2022/08/18 10:25:51;;;;;;;7.75;4.68;;;37.30;34.90;;;;;;6226321;28;20236;-65
2022/08/18 10:28:57;;;;;;;5.55;5.03;;;37.30;35.20;;;;;;6226681;28;20664;-66
2022/08/18 10:32:24;;;;;;;7.18;5.50;;;37.40;35.00;;;;;;6226629;28;20228;-66
2022/08/18 10:36:06;;;;;;;9.50;5.55;;;37.60;35.00;;;;;;6225765;28;20245;-66
2022/08/18 10:39:17;;;;;;;8.38;5.32;;;37.70;35.20;;;;;;6225738;28;20575;-65
2022/08/18 10:42:27;;;;;;;8.43;5.30;;;37.90;35.30;;;;;;6225865;28;20225;-65
2022/08/18 10:45:36;;;;;;;6.45;5.85;;;37.80;35.30;;;;;;6226155;28;20691;-65
2022/08/18 10:48:40;;;;;;;8.02;5.30;;;37.90;35.40;;;;;;6226035;28;20236;-65
2022/08/18 10:52:05;;;;;;;8.05;5.28;;;37.90;35.40;;;;;;6222079;28;20236;-65
2022/08/18 10:55:31;;;;;;;17.58;6.20;;;38.00;35.60;;;;;;6223674;28;20243;-65
2022/08/18 10:59:04;;;;;;;7.97;4.68;;;38.10;35.60;;;;;;6225753;28;20292;-65
2022/08/18 11:02:22;;;;;;;8.85;5.13;;;38.20;35.30;;;;;;6225798;28;20229;-65
2022/08/18 11:05:27;;;;;;;10.15;5.78;;;38.20;35.00;;;;;;6225503;28;20232;-65
2022/08/18 11:08:38;;;;;;;8.05;4.38;;;37.90;35.40;;;;;;6225472;28;20226;-67
2022/08/18 11:11:44;;;;;;;10.00;4.68;;;38.00;34.90;;;;;;6225440;28;20676;-66
2022/08/18 11:15:17;;;;;;;11.93;5.63;;;38.10;34.30;;;;;;6225572;28;20232;-66
2022/08/18 11:18:33;;;;;;;9.55;4.38;;;38.10;34.40;;;;;;6246942;28;20219;-66
2022/08/18 11:21:56;;;;;;;9.32;4.53;;;38.20;33.80;;;;;;6249050;28;20228;-66
2022/08/18 11:25:01;;;;;;;9.98;5.00;;;38.20;33.40;;;;;;6249763;28;20558;-65
2022/08/18 11:28:29;;;;;;;11.80;5.15;;;38.10;33.00;;;;;;6249905;28;20231;-65
2022/08/18 11:31:34;;;;;;;10.20;4.78;;;38.10;33.00;;;;;;6250005;28;20238;-65
2022/08/18 11:34:43;;;;;;;8.40;4.85;;;38.10;33.60;;;;;;6244447;28;20240;-66
2022/08/18 11:38:12;;;;;;;8.73;4.88;;;37.80;33.90;;;;;;6224709;28;20232;-65
2022/08/18 11:41:36;;;;;;;8.00;4.97;;;37.90;33.30;;;;;;6224922;28;20683;-66
2022/08/18 11:44:54;;;;;;;9.35;4.45;;;37.50;33.50;;;;;;6223842;28;20237;-65
2022/08/18 11:48:15;;;;;;;5.63;3.85;;;37.80;33.90;;;;;;6224618;28;20228;-65
2022/08/18 11:51:30;;;;;;;12.95;5.00;;;37.80;33.80;;;;;;6224324;28;20239;-65
2022/08/18 11:54:39;;;;;;;9.43;4.70;;;38.10;33.60;;;;;;6224550;28;20236;-66
2022/08/18 11:57:56;;;;;;;22.27;5.30;;;38.20;33.40;;;;;;6225268;28;20552;-66
2022/08/18 12:01:03;;;;;;;9.15;4.40;;;38.20;32.80;;;;;;6225744;28;20260;-66
2022/08/18 12:04:25;;;;;;;11.40;4.88;;;37.60;33.30;;;;;;6225460;28;20229;-65
2022/08/18 12:07:30;;;;;;;9.13;4.90;;;37.70;33.50;;;;;;6224889;28;20543;-65
2022/08/18 12:10:35;;;;;;;11.38;4.63;;;37.70;33.50;;;;;;6224996;28;20371;-65
2022/08/18 12:13:40;;;;;;;10.35;4.43;;;37.80;33.20;;;;;;6224788;28;20668;-67
2022/08/18 12:16:49;;;;;;;7.07;4.13;;;38.00;33.10;;;;;;6224807;28;20240;-65
2022/08/18 12:19:57;;;;;;;5.25;4.30;;;38.10;33.00;;;;;;6224689;28;20237;-65
2022/08/18 12:23:01;;;;;;;10.65;5.25;;;38.30;32.60;;;;;;6224749;28;20715;-65
2022/08/18 12:26:06;;;;;;;13.75;4.72;;;38.30;32.40;;;;;;6224857;28;20320;-65
2022/08/18 12:29:29;;;;;;;8.80;4.18;;;38.30;32.50;;;;;;6224732;28;20569;-66
2022/08/18 12:32:46;;;;;;;14.82;5.05;;;38.40;32.20;;;;;;6225273;28;20298;-66
2022/08/18 12:36:09;;;;;;;7.82;4.85;;;38.40;32.00;;;;;;6228634;28;20687;-66
2022/08/18 12:39:15;;;;;;;9.80;5.30;;;38.50;32.20;;;;;;6228699;28;20235;-66
2022/08/18 12:42:19;;;;;;;11.98;5.47;;;38.30;33.60;;;;;;6228679;28;20220;-66
2022/08/18 12:45:24;;;;;;;8.15;5.03;;;37.90;33.90;;;;;;6228254;28;20905;-66
2022/08/18 12:48:31;;;;;;;9.52;5.50;;;37.60;34.60;;;;;;6228502;28;20236;-66
2022/08/18 12:51:34;;;;;;;11.88;5.10;;;37.60;34.90;;;;;;6228723;28;20225;-66
2022/08/18 12:54:38;;;;;;;11.45;5.28;;;37.50;34.40;;;;;;6228345;28;20268;-66
2022/08/18 12:57:57;;;;;;;9.25;5.22;;;37.00;34.50;;;;;;6228670;28;20229;-66
2022/08/18 13:01:00;;;;;;;10.52;5.15;;;36.80;34.60;;;;;;6228297;28;20212;-66
2022/08/18 13:04:07;;;;;;;14.00;5.10;;;36.60;35.00;;;;;;6228398;28;20228;-65
2022/08/18 13:07:15;;;;;;;13.40;6.38;;;36.30;35.70;;;;;;6228355;28;20232;-66
2022/08/18 13:10:21;;;;;;;17.20;5.93;;;35.90;37.10;;;;;;6228399;28;20224;-65
2022/08/18 13:13:44;;;;;;;10.00;6.30;;;35.80;38.10;;;;;;6226544;28;20243;-65
2022/08/18 13:16:54;;;;;;;9.73;5.35;;;35.80;38.30;;;;;;6227163;28;20276;-65
2022/08/18 13:19:59;;;;;;;9.70;6.70;;;35.70;39.00;;;;;;6226761;28;20653;-65
2022/08/18 13:23:02;;;;;;;14.60;7.00;;;35.90;39.20;;;;;;6227037;28;20561;-65
2022/08/18 13:26:31;;;;;;;14.82;5.88;;;35.80;38.60;;;;;;6226829;28;20233;-65
2022/08/18 13:29:34;;;;;;;12.70;5.68;;;35.60;38.10;;;;;;6226802;28;20232;-66
2022/08/18 13:32:39;;;;;;;15.80;6.70;;;35.50;38.50;;;;;;6226505;28;20232;-65
2022/08/18 13:36:03;;;;;;;9.98;5.53;;;35.30;38.60;;;;;;6226582;28;20326;-65
2022/08/18 13:39:06;;;;;;;18.50;6.75;;;35.30;38.40;;;;;;6226488;28;20251;-65
2022/08/18 13:42:10;;;;;;;12.85;6.05;;;35.30;38.10;;;;;;6226206;28;20233;-65
2022/08/18 13:45:31;;;;;;;28.98;6.43;;;35.40;38.40;;;;;;6226117;28;20680;-65
2022/08/18 13:48:34;;;;;;;14.18;6.60;;;35.60;37.70;;;;;;6225982;28;20678;-65
2022/08/18 13:51:40;;;;;;;13.82;6.90;;;35.40;38.20;;;;;;6226441;28;20228;-66
2022/08/18 13:54:45;;;;;;;11.65;6.03;;;35.30;38.40;;;;;;6224677;28;20281;-65
2022/08/18 13:57:56;;;;;;;11.50;6.05;;;35.20;38.60;;;;;;6217473;28;20205;-65
2022/08/18 14:01:02;;;;;;;10.75;6.07;;;35.10;39.00;;;;;;6229689;28;20216;-65
2022/08/18 14:04:25;;;;;;;14.90;6.40;;;34.80;39.30;;;;;;6235507;28;20228;-66
2022/08/18 14:07:31;;;;;;;16.70;6.30;;;34.60;39.50;;;;;;6232347;28;20229;-66
2022/08/18 14:10:37;;;;;;;19.38;6.03;;;34.20;39.50;;;;;;6226738;28;20343;-65
2022/08/18 14:13:40;;;;;;;36.63;5.72;;;33.80;38.00;;;;;;6226486;28;20723;-66
2022/08/18 14:16:46;;;;;;;11.40;2.90;;;32.70;39.60;;;;;;6226414;28;20248;-66
2022/08/18 14:26:55;;;;;;;7.37;2.40;;;29.30;52.90;;;;;;6208993;28;20228;-66
2022/08/18 14:29:58;;;;;;;6.00;2.50;;;28.30;56.50;;;;;;6226188;28;20230;-65
2022/08/18 14:33:04;;;;;;;5.70;1.83;;;27.90;60.10;;;;;;6225880;28;20684;-67
2022/08/18 14:36:08;;;;;;;6.27;2.20;;;27.50;60.80;;;;;;6240838;28;20231;-67
2022/08/18 14:39:13;;;;;;;10.67;2.83;;;27.20;60.70;;;;;;6250057;28;20542;-67
2022/08/18 14:42:20;;;;;;;4.40;2.10;;;27.00;61.80;;;;;;6247300;28;20228;-67
2022/08/18 14:45:47;;;;;;;5.47;1.77;;;26.90;61.90;;;;;;6250271;28;20243;-67
2022/08/18 14:48:51;;;;;;;6.27;2.20;;;27.00;62.20;;;;;;6250612;28;20184;-66
2022/08/18 14:51:54;;;;;;;4.03;2.10;;;27.00;61.30;;;;;;6246518;28;20201;-69
2022/08/18 14:55:00;;;;;;;5.73;1.90;;;27.00;60.70;;;;;;6232628;28;20228;-69
2022/08/18 14:58:04;;;;;;;4.97;2.07;;;26.90;60.60;;;;;;6235878;28;20228;-69
2022/08/18 15:01:12;;;;;;;5.40;2.53;;;27.10;59.90;;;;;;6232159;28;20239;-69
2022/08/18 15:04:18;;;;;;;5.60;2.07;;;27.00;59.20;;;;;;6244317;28;20230;-67
2022/08/18 15:07:21;;;;;;;5.93;2.23;;;27.10;59.30;;;;;;6248891;28;20242;-69
2022/08/18 15:10:27;;;;;;;6.27;1.73;;;27.30;58.90;;;;;;6250053;28;20575;-69
2022/08/18 15:13:31;;;;;;;6.70;2.03;;;27.40;58.00;;;;;;6249966;28;20252;-68
2022/08/18 15:16:34;;;;;;;4.33;2.10;;;27.50;57.50;;;;;;6249856;28;20232;-69
2022/08/18 15:19:43;;;;;;;5.30;3.17;;;27.70;56.80;;;;;;6249989;28;20314;-69
2022/08/18 15:26:31;;;;;;;4.57;2.13;;;27.60;58.20;;;;;;6249372;28;20232;-70
2022/08/18 15:29:36;;;;;;;6.40;2.60;;;27.40;58.90;;;;;;6226948;28;20228;-69
2022/08/18 15:32:48;;;;;;;6.20;2.70;;;27.50;59.20;;;;;;6224337;28;20319;-69
2022/08/18 15:35:52;;;;;;;10.03;2.50;;;27.50;59.50;;;;;;6224990;28;20578;-68
2022/08/18 15:38:55;;;;;;;8.77;2.63;;;27.50;59.50;;;;;;6224676;28;20236;-69
2022/08/18 15:42:00;;;;;;;10.43;3.43;;;27.40;59.10;;;;;;6224952;28;20228;-67
2022/08/18 15:45:07;;;;;;;9.93;3.03;;;27.40;59.60;;;;;;6224995;28;20335;-69
2022/08/18 15:48:15;;;;;;;6.80;2.67;;;27.40;59.80;;;;;;6225020;28;20224;-70
2022/08/18 15:51:18;;;;;;;5.50;2.10;;;27.40;60.00;;;;;;6224694;28;20258;-69
2022/08/18 15:54:22;;;;;;;11.30;2.80;;;27.20;60.80;;;;;;6224460;28;20294;-67
2022/08/18 15:57:29;;;;;;;8.87;3.07;;;27.20;61.70;;;;;;6244806;28;20224;-66
2022/08/18 16:00:45;;;;;;;5.23;2.60;;;27.20;60.50;;;;;;6244209;28;20221;-65
2022/08/18 16:03:49;;;;;;;5.43;2.50;;;27.20;60.90;;;;;;6220329;28;20224;-66
2022/08/18 16:06:54;;;;;;;7.17;2.90;;;27.10;61.80;;;;;;6227523;28;20228;-65
2022/08/18 16:09:58;;;;;;;10.40;3.60;;;27.20;61.80;;;;;;6229498;28;20238;-67
2022/08/18 16:13:04;;;;;;;7.27;3.30;;;27.40;61.00;;;;;;6229642;28;20212;-65
2022/08/18 16:16:12;;;;;;;10.87;3.43;;;27.50;61.70;;;;;;6229884;28;20240;-67
2022/08/18 16:19:15;;;;;;;7.90;3.47;;;27.60;60.70;;;;;;6229137;28;20688;-68
2022/08/18 16:22:19;;;;;;;5.87;2.90;;;27.60;60.40;;;;;;6228811;28;20244;-66
2022/08/18 16:25:24;;;;;;;7.43;2.23;;;27.70;60.10;;;;;;6228630;28;20232;-67
2022/08/18 16:28:30;;;;;;;10.20;3.30;;;27.60;60.10;;;;;;6229078;28;20237;-66
2022/08/18 16:31:37;;;;;;;10.40;2.93;;;27.50;60.70;;;;;;6229385;28;20228;-65
2022/08/18 16:34:40;;;;;;;7.37;2.93;;;27.30;61.20;;;;;;6228808;28;20244;-66
2022/08/18 16:37:45;;;;;;;6.57;2.77;;;27.30;62.00;;;;;;6229286;28;20228;-66
2022/08/18 16:40:48;;;;;;;5.17;2.90;;;27.20;62.70;;;;;;6228696;28;20247;-68
2022/08/18 16:43:53;;;;;;;7.90;2.60;;;27.00;63.30;;;;;;6228675;28;20238;-66
2022/08/18 16:46:56;;;;;;;7.50;2.80;;;26.90;64.20;;;;;;6228211;28;20232;-67